Time;durP1;ratioP1;P1;durP2;ratioP2;P2;SDS_P1;SDS_P2;PMS_P1;PMS_P2;Temp;Humidity;BMP_temperature;BMP_pressure;BME280_temperature;BME280_humidity;BME280_pressure;Samples;Min_cycle;Max_cycle;Signal;HPM_P1;HPM_P2
2021/01/01 00:01:38;;;;;;;29.37;22.97;;;5.20;99.90;;;;;;5033000;28;20426;-72
2021/01/01 00:04:05;;;;;;;32.43;23.47;;;5.20;99.90;;;;;;5036617;28;20798;-72
2021/01/01 00:06:30;;;;;;;36.00;23.23;;;5.20;99.90;;;;;;5033299;28;20414;-73
2021/01/01 00:08:56;;;;;;;34.77;23.23;;;5.30;99.90;;;;;;5033678;28;20762;-73
2021/01/01 00:11:22;;;;;;;29.03;21.27;;;5.30;99.90;;;;;;5033260;28;20282;-73
2021/01/01 00:13:48;;;;;;;31.10;23.10;;;5.30;99.90;;;;;;5033895;28;20496;-73
2021/01/01 00:16:14;;;;;;;31.27;24.50;;;5.20;99.90;;;;;;5034282;28;20426;-72
2021/01/01 00:18:40;;;;;;;32.90;24.00;;;5.20;99.90;;;;;;5030702;28;20172;-73
2021/01/01 00:21:07;;;;;;;35.17;25.20;;;5.20;99.90;;;;;;5032359;28;20414;-72
2021/01/01 00:23:33;;;;;;;35.30;24.30;;;5.20;99.90;;;;;;5032668;28;20449;-72
2021/01/01 00:25:58;;;;;;;33.37;23.80;;;5.20;99.90;;;;;;5032483;28;20419;-72
2021/01/01 00:28:24;;;;;;;40.37;26.57;;;5.10;99.90;;;;;;5032528;28;20184;-73
2021/01/01 00:30:50;;;;;;;38.83;26.53;;;5.10;99.90;;;;;;5034968;28;20225;-73
2021/01/01 00:33:16;;;;;;;38.50;26.40;;;5.10;99.90;;;;;;5037992;28;20238;-73
2021/01/01 00:35:41;;;;;;;38.33;26.37;;;5.10;99.90;;;;;;5029414;28;20261;-73
2021/01/01 00:38:07;;;;;;;44.40;28.13;;;5.10;99.90;;;;;;5036126;28;20177;-72
2021/01/01 00:40:33;;;;;;;42.53;27.70;;;5.10;99.90;;;;;;5038085;28;20229;-73
2021/01/01 00:42:58;;;;;;;43.33;29.03;;;5.00;99.90;;;;;;5035930;28;20219;-72
2021/01/01 00:45:24;;;;;;;41.40;28.70;;;5.00;99.90;;;;;;5035733;28;20175;-73
2021/01/01 00:47:50;;;;;;;48.23;28.77;;;5.00;99.90;;;;;;5032720;28;20218;-73
2021/01/01 00:50:16;;;;;;;44.57;29.27;;;4.90;99.90;;;;;;5031986;28;20211;-72
2021/01/01 00:52:41;;;;;;;43.33;29.57;;;5.00;99.90;;;;;;5032055;28;20562;-73
2021/01/01 00:55:07;;;;;;;46.23;28.97;;;5.00;99.90;;;;;;5032213;28;20421;-72
2021/01/01 00:57:33;;;;;;;41.70;28.60;;;4.90;99.90;;;;;;5032017;28;20694;-73
2021/01/01 00:59:59;;;;;;;48.37;30.50;;;5.00;99.90;;;;;;5032345;28;20561;-72
2021/01/01 01:02:25;;;;;;;48.77;29.53;;;5.00;99.90;;;;;;5031611;28;20809;-72
2021/01/01 01:04:51;;;;;;;50.83;33.17;;;5.00;99.90;;;;;;5031115;28;20464;-72
2021/01/01 01:07:17;;;;;;;51.47;31.27;;;5.00;99.90;;;;;;5030735;28;20182;-72
2021/01/01 01:09:44;;;;;;;48.27;31.30;;;5.00;99.90;;;;;;5031499;28;20425;-72
2021/01/01 01:12:10;;;;;;;52.83;32.67;;;5.00;99.90;;;;;;5031377;28;20565;-73
2021/01/01 01:14:36;;;;;;;53.03;32.20;;;5.00;99.90;;;;;;5031984;28;21066;-73
2021/01/01 01:17:01;;;;;;;48.93;29.87;;;4.90;99.90;;;;;;5032095;28;20437;-72
2021/01/01 01:19:27;;;;;;;51.43;32.60;;;5.00;99.90;;;;;;5031750;28;20429;-72
2021/01/01 01:21:52;;;;;;;54.40;33.10;;;5.00;99.90;;;;;;5031533;28;20566;-72
2021/01/01 01:24:19;;;;;;;57.40;33.53;;;5.00;99.90;;;;;;5031291;28;20742;-73
2021/01/01 01:26:44;;;;;;;51.30;33.60;;;5.00;99.90;;;;;;5027266;28;20168;-72
2021/01/01 01:29:10;;;;;;;50.33;31.57;;;5.00;99.90;;;;;;5028608;28;20500;-73
2021/01/01 01:31:36;;;;;;;58.57;32.30;;;5.10;99.90;;;;;;5031517;28;20290;-73
2021/01/01 01:34:02;;;;;;;58.43;33.80;;;5.10;99.90;;;;;;5031486;28;20164;-73
2021/01/01 01:36:28;;;;;;;66.10;35.53;;;5.10;99.90;;;;;;5030806;28;20417;-72
2021/01/01 01:38:53;;;;;;;62.77;33.30;;;5.10;99.90;;;;;;5031671;28;20178;-72
2021/01/01 01:41:19;;;;;;;67.67;36.30;;;5.10;99.90;;;;;;5031382;28;20316;-72
2021/01/01 01:43:44;;;;;;;63.20;33.67;;;5.20;99.90;;;;;;5022791;28;20199;-72
2021/01/01 01:46:10;;;;;;;53.23;31.97;;;5.20;99.90;;;;;;5030416;28;20187;-73
2021/01/01 01:48:37;;;;;;;60.57;33.73;;;5.20;99.90;;;;;;5034591;28;20183;-72
2021/01/01 01:51:04;;;;;;;63.47;36.57;;;5.20;99.90;;;;;;5030592;28;20294;-72
2021/01/01 01:53:37;;;;;;;66.17;36.53;;;5.20;99.90;;;;;;5031636;28;20971;-73
2021/01/01 01:56:03;;;;;;;72.43;34.40;;;5.20;99.90;;;;;;5029795;28;20484;-73
2021/01/01 01:58:29;;;;;;;57.20;33.50;;;5.20;99.90;;;;;;5029444;28;20426;-72
2021/01/01 02:00:57;;;;;;;58.30;34.53;;;5.20;99.90;;;;;;5029878;28;20440;-73
2021/01/01 02:03:33;;;;;;;55.33;31.47;;;5.20;99.90;;;;;;5029854;28;20196;-73
2021/01/01 02:06:00;;;;;;;52.87;31.60;;;5.10;99.90;;;;;;5030661;28;20949;-73
2021/01/01 02:08:26;;;;;;;56.07;30.77;;;5.10;99.90;;;;;;5029311;28;20513;-73
2021/01/01 02:10:55;;;;;;;59.53;32.03;;;5.10;99.90;;;;;;5028587;28;20464;-73
2021/01/01 02:13:21;;;;;;;53.37;28.60;;;5.10;99.90;;;;;;5029924;28;20442;-72
2021/01/01 02:15:48;;;;;;;47.07;26.73;;;5.00;99.90;;;;;;5023229;28;20418;-73
2021/01/01 02:18:31;;;;;;;47.60;29.17;;;5.00;99.90;;;;;;5032389;28;20513;-72
2021/01/01 02:20:57;;;;;;;44.17;27.77;;;5.00;99.90;;;;;;5036632;28;20419;-72
2021/01/01 02:23:22;;;;;;;53.73;29.90;;;5.00;99.90;;;;;;5038881;28;20461;-73
2021/01/01 02:25:48;;;;;;;48.17;28.53;;;4.90;99.90;;;;;;5038450;28;20180;-72
2021/01/01 02:28:14;;;;;;;48.37;28.80;;;4.80;99.90;;;;;;5038188;28;20203;-73
2021/01/01 02:30:39;;;;;;;50.00;28.40;;;4.70;99.90;;;;;;5035206;28;20202;-72
2021/01/01 02:33:05;;;;;;;48.87;27.83;;;4.70;99.90;;;;;;5037324;28;20195;-73
2021/01/01 02:35:30;;;;;;;44.57;27.13;;;4.70;99.90;;;;;;5032704;28;20180;-72
2021/01/01 02:37:56;;;;;;;48.27;26.17;;;4.80;99.90;;;;;;5031537;28;20208;-72
2021/01/01 02:40:21;;;;;;;39.03;23.90;;;4.70;99.90;;;;;;5033386;28;20187;-73
2021/01/01 02:42:47;;;;;;;44.90;24.93;;;4.70;99.90;;;;;;5033191;28;20215;-72
2021/01/01 02:45:13;;;;;;;39.20;25.97;;;4.80;99.90;;;;;;5032967;28;20301;-72
2021/01/01 02:47:39;;;;;;;42.23;23.67;;;4.80;99.90;;;;;;5033269;28;20953;-72
2021/01/01 02:50:05;;;;;;;37.97;22.80;;;4.70;99.90;;;;;;5031790;28;20523;-72
2021/01/01 02:52:31;;;;;;;43.47;24.77;;;4.70;99.90;;;;;;5032240;28;20287;-72
2021/01/01 02:54:56;;;;;;;39.40;24.53;;;4.70;99.90;;;;;;5036378;28;20511;-72
2021/01/01 02:57:22;;;;;;;36.60;21.97;;;4.80;99.90;;;;;;5033229;28;20172;-72
2021/01/01 02:59:47;;;;;;;42.50;25.47;;;4.80;99.90;;;;;;5033658;28;20519;-72
2021/01/01 03:02:13;;;;;;;43.83;23.77;;;4.70;99.90;;;;;;5031910;28;20241;-72
2021/01/01 03:04:39;;;;;;;37.13;23.27;;;4.70;99.90;;;;;;5032839;28;20180;-72
2021/01/01 03:07:04;;;;;;;38.00;21.53;;;4.70;99.90;;;;;;5033170;28;20558;-72
2021/01/01 03:09:30;;;;;;;36.93;24.37;;;4.70;99.90;;;;;;5033151;28;20257;-72
2021/01/01 03:11:55;;;;;;;37.97;23.13;;;4.70;99.90;;;;;;5033770;28;20207;-72
2021/01/01 03:14:21;;;;;;;37.60;26.30;;;4.70;99.90;;;;;;5035520;28;20604;-73
2021/01/01 03:16:47;;;;;;;43.70;25.90;;;4.80;99.90;;;;;;5028621;28;20180;-73
2021/01/01 03:19:12;;;;;;;41.60;24.57;;;4.80;99.90;;;;;;5028087;28;20275;-73
2021/01/01 03:21:38;;;;;;;42.73;24.73;;;4.80;99.90;;;;;;5032945;28;20187;-72
2021/01/01 03:24:04;;;;;;;40.73;25.90;;;4.80;99.90;;;;;;5032382;28;20252;-72
2021/01/01 03:26:29;;;;;;;38.53;23.37;;;4.80;99.90;;;;;;5032382;28;20588;-72
2021/01/01 03:28:55;;;;;;;40.27;22.97;;;4.80;99.90;;;;;;5036129;28;20429;-73
2021/01/01 03:31:20;;;;;;;42.23;23.37;;;4.80;99.90;;;;;;5037161;28;20728;-73
2021/01/01 03:33:46;;;;;;;37.70;23.63;;;4.80;99.90;;;;;;5036056;28;20190;-72
2021/01/01 03:36:11;;;;;;;40.83;21.90;;;4.80;99.90;;;;;;5036173;28;20779;-72
2021/01/01 03:38:37;;;;;;;37.30;22.47;;;4.80;99.90;;;;;;5031386;28;20177;-72
2021/01/01 03:41:03;;;;;;;42.40;24.90;;;4.80;99.90;;;;;;5032726;28;20199;-73
2021/01/01 03:43:28;;;;;;;42.90;24.97;;;4.90;99.90;;;;;;5036641;28;20193;-73
2021/01/01 03:45:54;;;;;;;35.90;24.13;;;4.90;99.90;;;;;;5037092;28;20645;-72
2021/01/01 03:48:19;;;;;;;46.20;24.00;;;4.80;99.90;;;;;;5034880;28;20184;-72
2021/01/01 03:50:46;;;;;;;40.13;23.87;;;4.80;99.90;;;;;;5034743;28;20217;-73
2021/01/01 03:53:11;;;;;;;39.00;23.13;;;4.80;99.90;;;;;;5031449;28;20234;-73
2021/01/01 03:55:37;;;;;;;35.03;23.33;;;4.70;99.90;;;;;;5032650;28;20474;-73
2021/01/01 03:58:03;;;;;;;37.87;22.87;;;4.70;99.90;;;;;;5033069;28;20916;-73
2021/01/01 04:00:28;;;;;;;35.43;23.53;;;4.70;99.90;;;;;;5035827;28;20182;-72
2021/01/01 04:02:54;;;;;;;41.33;23.13;;;4.60;99.90;;;;;;5032656;28;20285;-72
2021/01/01 04:05:19;;;;;;;34.73;21.50;;;4.70;99.90;;;;;;5032516;28;20187;-73
2021/01/01 04:07:45;;;;;;;36.80;22.13;;;4.70;99.90;;;;;;5031180;28;20172;-73
2021/01/01 04:10:11;;;;;;;36.87;21.37;;;4.70;99.90;;;;;;5032957;28;20636;-73
2021/01/01 04:12:37;;;;;;;35.63;22.53;;;4.70;99.90;;;;;;5031139;28;20195;-73
2021/01/01 04:15:04;;;;;;;33.07;22.10;;;4.80;99.90;;;;;;5029374;28;20611;-73
2021/01/01 04:17:30;;;;;;;30.27;20.43;;;4.80;99.90;;;;;;5030675;28;20167;-72
2021/01/01 04:19:56;;;;;;;31.80;20.83;;;4.80;99.90;;;;;;5030590;28;20434;-73
2021/01/01 04:22:21;;;;;;;35.57;23.90;;;4.90;99.90;;;;;;5031478;28;20191;-73
2021/01/01 04:24:47;;;;;;;31.73;20.43;;;4.90;99.90;;;;;;5031828;28;20178;-73
2021/01/01 04:27:12;;;;;;;36.23;21.93;;;4.90;99.90;;;;;;5032917;28;21638;-72
2021/01/01 04:29:38;;;;;;;35.70;20.33;;;4.90;99.90;;;;;;5032598;28;20233;-72
2021/01/01 04:32:04;;;;;;;34.67;21.47;;;4.90;99.90;;;;;;5029837;28;20605;-72
2021/01/01 04:34:29;;;;;;;36.33;22.33;;;4.90;99.90;;;;;;5030681;28;20186;-73
2021/01/01 04:36:55;;;;;;;35.97;23.40;;;4.90;99.90;;;;;;5032808;28;20476;-73
2021/01/01 04:39:21;;;;;;;32.27;20.43;;;5.00;99.90;;;;;;5031993;28;20179;-72
2021/01/01 04:41:53;;;;;;;32.30;21.40;;;5.00;99.90;;;;;;5027019;28;20213;-73
2021/01/01 04:44:23;;;;;;;36.10;20.70;;;5.00;99.90;;;;;;5028958;28;20600;-71
2021/01/01 04:46:50;;;;;;;37.43;19.90;;;4.90;99.90;;;;;;5032467;28;20438;-73
2021/01/01 04:49:16;;;;;;;35.77;21.30;;;4.90;99.90;;;;;;5030774;28;20827;-72
2021/01/01 04:51:42;;;;;;;33.77;22.23;;;4.90;99.90;;;;;;5031044;28;20477;-73
2021/01/01 04:54:10;;;;;;;29.30;19.50;;;4.90;99.90;;;;;;5030952;28;20442;-73
2021/01/01 04:56:47;;;;;;;29.77;18.97;;;4.90;99.90;;;;;;5029812;28;20433;-72
2021/01/01 04:59:17;;;;;;;33.47;19.53;;;4.90;99.90;;;;;;5029932;28;21018;-72
2021/01/01 05:01:44;;;;;;;31.07;19.07;;;4.90;99.90;;;;;;5030492;28;21077;-73
2021/01/01 05:04:10;;;;;;;29.13;19.33;;;4.90;99.90;;;;;;5030790;28;20430;-73
2021/01/01 05:06:39;;;;;;;30.20;19.73;;;5.00;99.90;;;;;;5031586;28;20484;-71
2021/01/01 05:09:04;;;;;;;27.67;19.33;;;5.00;99.90;;;;;;5041092;28;20415;-72
2021/01/01 05:11:30;;;;;;;34.20;21.30;;;5.00;99.90;;;;;;5029883;28;20453;-72
2021/01/01 05:13:57;;;;;;;28.93;19.40;;;5.00;99.90;;;;;;5029247;28;20433;-72
2021/01/01 05:16:23;;;;;;;29.93;19.57;;;5.00;99.90;;;;;;5031449;28;20178;-72
2021/01/01 05:18:49;;;;;;;32.87;18.00;;;5.00;99.90;;;;;;5030571;28;20808;-73
2021/01/01 05:21:26;;;;;;;28.43;18.70;;;5.00;99.90;;;;;;5030431;28;20179;-73
2021/01/01 05:23:54;;;;;;;30.17;19.30;;;5.00;99.90;;;;;;5032389;28;20702;-72
2021/01/01 05:26:24;;;;;;;31.53;19.60;;;5.00;99.90;;;;;;5030409;28;20429;-73
2021/01/01 05:28:49;;;;;;;32.13;20.83;;;5.10;99.90;;;;;;5031526;28;20419;-72
2021/01/01 05:31:19;;;;;;;30.30;19.23;;;5.00;99.90;;;;;;5031100;28;20786;-73
2021/01/01 05:33:59;;;;;;;33.83;20.57;;;5.00;99.90;;;;;;5029816;28;20281;-73
2021/01/01 05:36:47;;;;;;;30.67;19.80;;;5.00;99.90;;;;;;5030933;28;20422;-72
2021/01/01 05:39:13;;;;;;;31.80;18.27;;;5.00;99.90;;;;;;5026598;28;20438;-72
2021/01/01 05:41:48;;;;;;;33.00;20.87;;;5.00;99.90;;;;;;5029938;28;20935;-73
2021/01/01 05:44:17;;;;;;;31.13;19.67;;;5.00;99.90;;;;;;5031039;28;20167;-72
2021/01/01 05:46:55;;;;;;;39.27;21.53;;;5.00;99.90;;;;;;5030459;28;20520;-73
2021/01/01 05:49:22;;;;;;;34.80;20.90;;;4.90;99.90;;;;;;5026698;28;20437;-73
2021/01/01 05:52:07;;;;;;;31.73;20.07;;;4.90;99.90;;;;;;5032518;28;20894;-73
2021/01/01 05:54:34;;;;;;;32.67;18.90;;;4.70;99.90;;;;;;5033654;28;20515;-72
2021/01/01 05:57:03;;;;;;;33.13;20.60;;;4.80;99.90;;;;;;5035123;28;20891;-72
2021/01/01 05:59:28;;;;;;;31.77;20.47;;;4.90;99.90;;;;;;5032641;28;20457;-72
2021/01/01 06:01:59;;;;;;;32.90;21.27;;;4.90;99.90;;;;;;5035429;28;20445;-72
2021/01/01 06:04:24;;;;;;;31.27;20.10;;;4.90;99.90;;;;;;5034194;28;20191;-72
2021/01/01 06:06:53;;;;;;;30.10;20.47;;;4.90;99.90;;;;;;5034171;28;20429;-73
2021/01/01 06:09:20;;;;;;;33.23;20.93;;;5.00;99.90;;;;;;5031056;28;20197;-73
2021/01/01 06:12:22;;;;;;;37.33;21.97;;;4.90;99.90;;;;;;5035060;28;20457;-72
2021/01/01 06:14:58;;;;;;;36.23;21.50;;;5.00;99.90;;;;;;5030026;28;20437;-73
2021/01/01 06:17:54;;;;;;;39.13;22.37;;;5.00;99.90;;;;;;5031223;28;20426;-73
2021/01/01 06:20:22;;;;;;;33.67;20.80;;;5.00;99.90;;;;;;5034191;28;20437;-73
2021/01/01 06:23:12;;;;;;;35.63;20.13;;;5.10;99.90;;;;;;5034570;28;20448;-73
2021/01/01 06:25:37;;;;;;;32.70;21.70;;;5.10;99.90;;;;;;5033787;28;20430;-72
2021/01/01 06:28:03;;;;;;;33.60;20.77;;;5.20;99.90;;;;;;5038456;28;20440;-73
2021/01/01 06:30:29;;;;;;;33.63;20.30;;;5.10;99.90;;;;;;5034730;28;20278;-73
2021/01/01 06:32:56;;;;;;;34.63;22.17;;;5.10;99.90;;;;;;5032971;28;20533;-72
2021/01/01 06:35:24;;;;;;;34.53;21.87;;;5.10;99.90;;;;;;5033978;28;20596;-73
2021/01/01 06:37:54;;;;;;;33.27;20.47;;;5.20;99.90;;;;;;5034322;28;20445;-73
2021/01/01 06:40:20;;;;;;;28.77;20.40;;;5.20;99.90;;;;;;5033619;28;20434;-73
2021/01/01 06:42:55;;;;;;;31.40;18.93;;;5.10;99.90;;;;;;5031859;28;20450;-73
2021/01/01 06:45:30;;;;;;;30.13;19.93;;;5.10;99.90;;;;;;5022314;28;20256;-73
2021/01/01 06:47:56;;;;;;;32.10;20.70;;;5.10;99.90;;;;;;5029664;28;20446;-73
2021/01/01 06:50:29;;;;;;;33.90;20.93;;;5.10;99.90;;;;;;5028952;28;20457;-72
2021/01/01 06:53:05;;;;;;;29.23;21.60;;;5.10;99.90;;;;;;5033040;28;20587;-72
2021/01/01 06:55:52;;;;;;;36.13;19.47;;;5.20;99.90;;;;;;5034250;28;20433;-73
2021/01/01 06:58:26;;;;;;;29.93;18.97;;;5.10;99.90;;;;;;5030391;28;20449;-72
2021/01/01 07:00:53;;;;;;;32.87;21.47;;;5.00;99.90;;;;;;5033137;28;20791;-73
2021/01/01 07:03:25;;;;;;;41.07;21.93;;;5.10;99.90;;;;;;5032277;28;20457;-72
2021/01/01 07:05:51;;;;;;;33.60;21.80;;;5.00;99.90;;;;;;5031919;28;20457;-73
2021/01/01 07:11:10;;;;;;;40.50;22.67;;;5.00;99.90;;;;;;5033778;28;20219;-73
2021/01/01 07:13:51;;;;;;;34.87;22.47;;;5.00;99.90;;;;;;5033228;28;20839;-73
2021/01/01 07:16:19;;;;;;;31.50;21.47;;;5.00;99.90;;;;;;5032038;28;20799;-73
2021/01/01 07:18:45;;;;;;;39.10;25.00;;;5.00;99.90;;;;;;5034186;28;20920;-73
2021/01/01 07:21:12;;;;;;;40.70;24.90;;;5.00;99.90;;;;;;5033227;28;20438;-72
2021/01/01 07:23:38;;;;;;;40.90;27.90;;;5.00;99.90;;;;;;5034025;28;20447;-73
2021/01/01 07:26:04;;;;;;;58.13;29.33;;;4.90;99.90;;;;;;5033536;28;20442;-73
2021/01/01 07:28:31;;;;;;;48.10;30.60;;;4.80;99.90;;;;;;5039086;28;20434;-73
2021/01/01 07:30:56;;;;;;;44.50;29.67;;;4.70;99.90;;;;;;5033417;28;21026;-73
2021/01/01 07:33:26;;;;;;;51.87;32.73;;;4.70;99.90;;;;;;5031184;28;20664;-73
2021/01/01 07:35:58;;;;;;;47.10;29.43;;;4.60;99.90;;;;;;5025842;28;20180;-73
2021/01/01 07:38:27;;;;;;;52.10;31.67;;;4.50;99.90;;;;;;5032274;28;20430;-72
2021/01/01 07:40:53;;;;;;;47.23;30.50;;;4.60;99.90;;;;;;5032240;28;20430;-73
2021/01/01 07:43:20;;;;;;;49.83;30.00;;;4.50;99.90;;;;;;5033586;28;20465;-73
2021/01/01 07:45:45;;;;;;;54.97;32.67;;;4.50;99.90;;;;;;5030939;28;20985;-73
2021/01/01 07:48:11;;;;;;;51.57;30.77;;;4.40;99.90;;;;;;5031421;28;20553;-73
2021/01/01 07:50:38;;;;;;;44.57;30.30;;;4.40;99.90;;;;;;5030765;28;20195;-72
2021/01/01 07:53:09;;;;;;;48.23;30.53;;;4.50;99.90;;;;;;5027039;28;20680;-72
2021/01/01 07:55:35;;;;;;;49.30;32.67;;;4.50;99.90;;;;;;5032138;28;20425;-72
2021/01/01 07:58:05;;;;;;;47.80;30.63;;;4.50;99.90;;;;;;5032708;28;20458;-72
2021/01/01 08:00:32;;;;;;;48.53;29.77;;;4.60;99.90;;;;;;5032765;28;20437;-72
2021/01/01 08:03:00;;;;;;;42.13;28.40;;;4.60;99.90;;;;;;5030862;28;20454;-73
2021/01/01 08:05:26;;;;;;;45.60;30.90;;;4.70;99.90;;;;;;5030330;28;20513;-73
2021/01/01 08:07:52;;;;;;;45.37;28.33;;;4.70;99.90;;;;;;5030438;28;20438;-73
2021/01/01 08:10:33;;;;;;;45.47;28.00;;;4.70;99.90;;;;;;5031842;28;20450;-73
2021/01/01 08:12:59;;;;;;;42.63;27.03;;;4.70;99.90;;;;;;5029785;28;20557;-73
2021/01/01 08:15:31;;;;;;;44.10;28.30;;;4.70;99.90;;;;;;5031564;28;20510;-72
2021/01/01 08:18:08;;;;;;;42.10;27.80;;;4.80;99.90;;;;;;5032043;28;20180;-72
2021/01/01 08:20:34;;;;;;;45.13;27.40;;;4.80;99.90;;;;;;5031237;28;20456;-73
2021/01/01 08:23:06;;;;;;;39.37;27.00;;;4.80;99.90;;;;;;5032969;28;20446;-73
2021/01/01 08:25:32;;;;;;;48.30;28.40;;;4.80;99.90;;;;;;5032118;28;20430;-73
2021/01/01 08:27:58;;;;;;;44.83;28.63;;;4.90;99.90;;;;;;5032171;28;20550;-73
2021/01/01 08:30:24;;;;;;;41.67;26.83;;;4.90;99.90;;;;;;5032633;28;20456;-73
2021/01/01 08:32:51;;;;;;;41.60;27.77;;;4.80;99.90;;;;;;5031581;28;20457;-73
2021/01/01 08:35:17;;;;;;;46.77;30.27;;;4.90;99.90;;;;;;5032183;28;20433;-73
2021/01/01 08:37:42;;;;;;;40.53;28.70;;;5.00;99.90;;;;;;5031528;28;20438;-73
2021/01/01 08:40:10;;;;;;;48.10;31.47;;;5.10;99.90;;;;;;5029597;28;20287;-72
2021/01/01 08:42:40;;;;;;;47.10;31.67;;;5.10;99.90;;;;;;5031477;28;20600;-73
2021/01/01 08:45:07;;;;;;;54.87;32.30;;;4.90;99.90;;;;;;5032287;28;20418;-72
2021/01/01 08:47:44;;;;;;;45.83;31.10;;;5.00;99.90;;;;;;5031740;28;20488;-72
2021/01/01 08:50:26;;;;;;;53.37;30.10;;;5.10;99.90;;;;;;5031722;28;20501;-72
2021/01/01 08:53:03;;;;;;;47.13;28.23;;;5.20;99.90;;;;;;5024197;28;20530;-71
2021/01/01 08:55:30;;;;;;;41.17;28.47;;;5.20;99.90;;;;;;5028014;28;20519;-73
2021/01/01 08:58:12;;;;;;;44.63;27.50;;;5.30;99.90;;;;;;5030380;28;20436;-73
2021/01/01 09:00:40;;;;;;;47.30;28.00;;;5.30;99.90;;;;;;5030645;28;20437;-73
2021/01/01 09:03:06;;;;;;;37.57;25.13;;;5.40;99.90;;;;;;5031944;28;20461;-73
2021/01/01 09:05:33;;;;;;;40.03;25.47;;;5.40;99.90;;;;;;5031181;28;20434;-72
2021/01/01 09:08:25;;;;;;;39.23;26.63;;;5.50;99.90;;;;;;5031074;28;20422;-73
2021/01/01 09:10:54;;;;;;;42.03;24.37;;;5.60;99.90;;;;;;5031864;28;20959;-72
2021/01/01 09:13:38;;;;;;;39.23;25.47;;;5.50;99.90;;;;;;5029912;28;20496;-72
2021/01/01 09:16:08;;;;;;;50.47;30.83;;;5.60;99.90;;;;;;5028868;28;20492;-73
2021/01/01 09:18:34;;;;;;;40.60;26.20;;;5.60;99.90;;;;;;5031175;28;20846;-73
2021/01/01 09:21:13;;;;;;;38.00;25.93;;;5.70;99.90;;;;;;5031520;28;20764;-73
2021/01/01 09:23:40;;;;;;;48.27;27.57;;;5.80;99.90;;;;;;5031706;28;20446;-73
2021/01/01 09:26:06;;;;;;;41.20;24.57;;;5.80;99.90;;;;;;5029681;28;20466;-73
2021/01/01 09:28:33;;;;;;;43.73;26.90;;;5.90;99.90;;;;;;5029622;28;20448;-73
2021/01/01 09:30:59;;;;;;;39.17;24.53;;;5.80;99.90;;;;;;5031814;28;20494;-73
2021/01/01 09:33:25;;;;;;;41.83;24.97;;;5.80;99.90;;;;;;5030895;28;20454;-73
2021/01/01 09:35:51;;;;;;;48.37;26.30;;;5.90;99.90;;;;;;5029196;28;20204;-72
2021/01/01 09:38:16;;;;;;;37.90;25.70;;;6.00;99.90;;;;;;5030487;28;20176;-73
2021/01/01 09:40:42;;;;;;;41.93;26.50;;;6.10;99.90;;;;;;5030367;28;20456;-72
2021/01/01 09:43:08;;;;;;;39.00;24.53;;;6.10;99.90;;;;;;5031251;28;20202;-73
2021/01/01 09:45:38;;;;;;;39.90;24.87;;;6.00;99.90;;;;;;5031880;28;20233;-73
2021/01/01 09:48:04;;;;;;;42.10;26.17;;;6.10;99.90;;;;;;5031213;28;20191;-73
2021/01/01 09:50:30;;;;;;;41.73;27.03;;;6.40;99.90;;;;;;5029641;28;20503;-73
2021/01/01 09:52:56;;;;;;;40.07;26.30;;;6.60;99.90;;;;;;5030421;28;20498;-73
2021/01/01 09:55:22;;;;;;;147.17;99.60;;;6.70;99.90;;;;;;5029822;28;20458;-73
2021/01/01 09:57:48;;;;;;;47.03;27.97;;;6.80;99.90;;;;;;5030030;28;20172;-73
2021/01/01 10:00:16;;;;;;;45.37;28.10;;;7.10;99.90;;;;;;5030457;28;20175;-73
2021/01/01 10:02:42;;;;;;;40.13;25.50;;;7.30;99.90;;;;;;5030677;28;20452;-72
2021/01/01 10:05:10;;;;;;;40.30;25.40;;;7.40;99.90;;;;;;5031100;28;20791;-72
2021/01/01 10:07:37;;;;;;;45.03;26.70;;;7.50;99.90;;;;;;5030611;28;20433;-72
2021/01/01 10:10:04;;;;;;;41.03;25.63;;;7.50;99.90;;;;;;5029424;28;20923;-72
2021/01/01 10:12:30;;;;;;;34.00;24.03;;;7.60;99.90;;;;;;5030518;28;20953;-72
2021/01/01 10:14:58;;;;;;;35.70;23.50;;;7.60;99.90;;;;;;5030154;28;20430;-72
2021/01/01 10:17:24;;;;;;;35.90;23.90;;;7.50;99.90;;;;;;5028106;28;20819;-72
2021/01/01 10:19:50;;;;;;;42.23;25.90;;;7.30;99.90;;;;;;5029871;28;20445;-72
2021/01/01 10:22:17;;;;;;;42.70;26.13;;;7.40;99.90;;;;;;5030161;28;20445;-73
2021/01/01 10:24:44;;;;;;;39.17;26.80;;;7.50;99.90;;;;;;5030651;28;20673;-72
2021/01/01 10:27:10;;;;;;;43.60;27.13;;;7.70;99.90;;;;;;5029581;28;20509;-72
2021/01/01 10:29:35;;;;;;;39.03;25.43;;;8.30;99.90;;;;;;5033664;28;20426;-72
2021/01/01 10:32:08;;;;;;;30.47;23.10;;;8.80;99.90;;;;;;5024816;28;20524;-72
2021/01/01 10:34:34;;;;;;;39.63;23.03;;;9.10;99.90;;;;;;5030599;28;20171;-73
2021/01/01 10:37:00;;;;;;;29.67;22.70;;;9.90;99.90;;;;;;5032329;28;20418;-72
2021/01/01 10:39:26;;;;;;;35.03;25.67;;;10.10;99.90;;;;;;5033178;28;21058;-72
2021/01/01 10:41:52;;;;;;;35.00;24.33;;;10.40;99.90;;;;;;5034708;28;20194;-72
2021/01/01 10:44:18;;;;;;;38.30;24.63;;;10.80;99.90;;;;;;5034946;28;20467;-72
2021/01/01 10:46:49;;;;;;;32.77;23.30;;;11.00;99.90;;;;;;5033636;28;20473;-73
2021/01/01 10:49:14;;;;;;;33.53;24.97;;;11.40;99.90;;;;;;5035395;28;20456;-73
2021/01/01 10:51:40;;;;;;;31.63;23.40;;;11.60;99.90;;;;;;5035398;28;20465;-73
2021/01/01 10:54:06;;;;;;;35.83;22.47;;;11.30;99.90;;;;;;5033516;28;20184;-73
2021/01/01 10:56:32;;;;;;;38.37;25.13;;;11.30;99.90;;;;;;5032856;28;20225;-73
2021/01/01 10:58:57;;;;;;;33.37;23.07;;;11.10;99.90;;;;;;5034626;28;20436;-73
2021/01/01 11:01:24;;;;;;;34.67;24.10;;;11.00;99.90;;;;;;5034167;28;20197;-72
2021/01/01 11:03:51;;;;;;;32.80;23.10;;;10.80;99.90;;;;;;5033173;28;20191;-72
2021/01/01 11:06:18;;;;;;;27.10;21.83;;;11.80;99.90;;;;;;5033208;28;20426;-72
2021/01/01 11:08:44;;;;;;;28.40;21.00;;;12.70;99.90;;;;;;5033017;28;20580;-73
2021/01/01 11:11:11;;;;;;;31.93;22.23;;;13.50;99.90;;;;;;5032205;28;20492;-73
2021/01/01 11:13:42;;;;;;;32.03;21.43;;;13.80;99.90;;;;;;5033097;28;20458;-73
2021/01/01 12:25:20;;;;;;;27.60;19.30;;;11.90;99.90;;;;;;5030741;28;20477;-72
2021/01/01 12:27:48;;;;;;;22.77;17.53;;;11.70;99.90;;;;;;5029213;28;20426;-73
2021/01/01 12:30:16;;;;;;;29.57;17.60;;;11.50;99.90;;;;;;5029996;28;20426;-73
2021/01/01 12:32:43;;;;;;;27.70;17.90;;;11.40;99.90;;;;;;5027413;28;20481;-72
2021/01/01 12:35:11;;;;;;;24.10;16.57;;;11.10;99.90;;;;;;5031397;28;20453;-73
2021/01/01 12:37:37;;;;;;;28.10;17.63;;;10.90;99.90;;;;;;5033213;28;20453;-73
2021/01/01 12:40:05;;;;;;;25.13;16.50;;;10.80;99.90;;;;;;5031797;28;20423;-73
2021/01/01 12:42:30;;;;;;;17.17;13.27;;;10.60;99.90;;;;;;5031320;28;20519;-74
2021/01/01 12:44:56;;;;;;;26.43;16.60;;;10.30;99.90;;;;;;5031008;28;20434;-72
2021/01/01 12:47:21;;;;;;;21.70;17.00;;;9.90;99.90;;;;;;5037697;28;20199;-73
2021/01/01 12:49:47;;;;;;;28.20;18.50;;;9.70;99.90;;;;;;5036645;28;20183;-72
2021/01/01 12:52:13;;;;;;;30.80;20.37;;;9.50;99.90;;;;;;5039730;28;20251;-73
2021/01/01 12:54:39;;;;;;;31.13;20.93;;;9.30;99.90;;;;;;5036077;28;20183;-73
2021/01/01 12:57:04;;;;;;;28.90;20.47;;;9.10;99.90;;;;;;5036399;28;20182;-73
2021/01/01 12:59:30;;;;;;;26.30;17.60;;;9.20;99.90;;;;;;5037222;28;20525;-72
2021/01/01 13:01:56;;;;;;;21.63;16.03;;;9.10;99.90;;;;;;5033280;28;20648;-72
2021/01/01 13:04:21;;;;;;;23.30;16.27;;;9.00;99.90;;;;;;5031322;28;20179;-72
2021/01/01 13:06:47;;;;;;;28.90;18.87;;;8.90;99.90;;;;;;5029408;28;20219;-72
2021/01/01 13:09:12;;;;;;;26.27;18.37;;;8.70;99.90;;;;;;5030874;28;20198;-72
2021/01/01 13:11:42;;;;;;;26.00;16.90;;;8.60;99.90;;;;;;5031182;28;20248;-72
2021/01/01 13:14:08;;;;;;;20.00;14.40;;;8.50;99.90;;;;;;5031415;28;20214;-72
2021/01/01 13:16:33;;;;;;;21.43;14.20;;;8.40;99.90;;;;;;5030103;28;20434;-72
2021/01/01 13:18:59;;;;;;;19.30;14.47;;;8.20;99.90;;;;;;5030994;28;20430;-72
2021/01/01 13:21:29;;;;;;;24.90;15.07;;;8.20;99.90;;;;;;5029547;28;20222;-73
2021/01/01 13:23:55;;;;;;;29.80;17.87;;;8.20;99.90;;;;;;5030742;28;20586;-72
2021/01/01 13:26:22;;;;;;;23.70;15.00;;;8.10;99.90;;;;;;5031371;28;20430;-72
2021/01/01 13:28:48;;;;;;;32.03;15.97;;;7.80;99.90;;;;;;5028531;28;20445;-72
2021/01/01 13:31:15;;;;;;;17.83;12.53;;;7.90;99.90;;;;;;5024588;28;20897;-72
2021/01/01 13:33:41;;;;;;;20.37;14.00;;;7.90;99.90;;;;;;5024389;28;20489;-73
2021/01/01 13:36:18;;;;;;;19.83;14.30;;;7.80;99.90;;;;;;5024018;28;20430;-72
2021/01/01 13:38:45;;;;;;;20.30;13.50;;;7.80;99.90;;;;;;5024871;28;20422;-72
2021/01/01 13:41:13;;;;;;;20.83;14.57;;;7.80;99.90;;;;;;5025071;28;20437;-72
2021/01/01 13:43:43;;;;;;;23.17;13.30;;;7.70;99.90;;;;;;5028640;28;20458;-72
2021/01/01 13:46:09;;;;;;;17.27;12.43;;;7.70;99.90;;;;;;5034431;28;20430;-72
2021/01/01 13:48:36;;;;;;;15.70;11.40;;;7.70;99.90;;;;;;5030926;28;20502;-72
2021/01/01 13:51:03;;;;;;;21.23;12.93;;;7.70;99.90;;;;;;5030059;28;20453;-72